createdAt,value
2018-10-17T00:01:50.907Z,101635.00
2018-10-17T00:03:53.903Z,101630.00
2018-10-17T00:05:56.903Z,101628.00
2018-10-17T00:08:00.152Z,101634.00
2018-10-17T00:10:04.951Z,101631.00
2018-10-17T00:12:07.932Z,101629.00
2018-10-17T00:14:10.966Z,101635.00
2018-10-17T00:16:13.935Z,101631.00
2018-10-17T00:18:16.971Z,101632.00
2018-10-17T00:20:20.046Z,101627.00
2018-10-17T00:22:23.067Z,101627.00
2018-10-17T00:24:26.422Z,101625.00
2018-10-17T00:26:29.453Z,101628.00
2018-10-17T00:28:34.064Z,101630.00
2018-10-17T00:30:37.095Z,101631.00
2018-10-17T00:32:40.105Z,101633.00
2018-10-17T00:34:43.162Z,101638.00
2018-10-17T00:36:46.307Z,101628.00
2018-10-17T00:38:49.344Z,101634.00
2018-10-17T00:40:52.463Z,101631.00
2018-10-17T00:42:56.465Z,101630.00
2018-10-17T00:44:59.465Z,101630.00
2018-10-17T00:47:04.557Z,101631.00
2018-10-17T00:49:07.780Z,101627.00
2018-10-17T00:51:10.733Z,101627.00
2018-10-17T00:53:13.852Z,101631.00
2018-10-17T00:55:16.852Z,101624.00
2018-10-17T00:57:19.836Z,101628.00
2018-10-17T00:59:22.824Z,101623.00
2018-10-17T01:01:26.714Z,101627.00
2018-10-17T01:03:29.705Z,101625.00
2018-10-17T01:05:34.464Z,101630.00
2018-10-17T01:07:37.808Z,101630.00
2018-10-17T01:09:40.873Z,101636.00
2018-10-17T01:11:43.962Z,101634.00
2018-10-17T01:13:47.012Z,101637.00
2018-10-17T01:15:50.053Z,101635.00
2018-10-17T01:17:53.064Z,101632.00
2018-10-17T01:19:56.385Z,101629.00
2018-10-17T01:21:59.419Z,101629.00
2018-10-17T01:24:02.483Z,101624.00
2018-10-17T01:26:07.176Z,101623.00
2018-10-17T01:28:10.192Z,101622.00
2018-10-17T01:30:13.187Z,101617.00
2018-10-17T01:32:16.205Z,101619.00
2018-10-17T01:34:19.231Z,101619.00
2018-10-17T01:36:22.232Z,101612.00
2018-10-17T01:38:25.217Z,101607.00
2018-10-17T01:40:28.244Z,101612.00
2018-10-17T01:42:31.248Z,101610.00
2018-10-17T01:44:35.650Z,101612.00
2018-10-17T01:46:38.631Z,101611.00
2018-10-17T01:48:41.577Z,101609.00
2018-10-17T01:50:44.576Z,101610.00
2018-10-17T01:52:47.555Z,101608.00
2018-10-17T01:54:50.571Z,101609.00
2018-10-17T01:56:53.571Z,101611.00
2018-10-17T01:58:56.613Z,101608.00
2018-10-17T02:00:59.660Z,101611.00
2018-10-17T02:03:04.771Z,101613.00
2018-10-17T02:05:07.976Z,101608.00
2018-10-17T02:07:11.027Z,101608.00
2018-10-17T02:09:14.012Z,101611.00
2018-10-17T02:11:17.087Z,101613.00
2018-10-17T02:13:21.023Z,101611.00
2018-10-17T02:15:24.019Z,101613.00
2018-10-17T02:17:27.031Z,101609.00
2018-10-17T02:19:30.066Z,101615.00
2018-10-17T02:21:34.435Z,101615.00
2018-10-17T02:23:37.489Z,101615.00
2018-10-17T02:25:40.491Z,101620.00
2018-10-17T02:27:43.499Z,101616.00
2018-10-17T02:29:46.969Z,101614.00
2018-10-17T02:31:50.055Z,101608.00
2018-10-17T02:33:53.067Z,101609.00
2018-10-17T02:35:56.098Z,101613.00
2018-10-17T02:37:59.144Z,101613.00
2018-10-17T02:40:02.161Z,101613.00
2018-10-17T02:42:07.473Z,101614.00
2018-10-17T02:44:10.524Z,101616.00
2018-10-17T02:46:13.548Z,101618.00
2018-10-17T02:48:16.620Z,101617.00
2018-10-17T02:50:19.636Z,101621.00
2018-10-17T02:52:22.633Z,101621.00
2018-10-17T02:54:26.083Z,101625.00
2018-10-17T02:56:29.164Z,101628.00
2018-10-17T02:58:32.220Z,101634.00
2018-10-17T03:00:36.433Z,101637.00
2018-10-17T03:02:39.450Z,101635.00
2018-10-17T03:04:42.454Z,101632.00
2018-10-17T03:06:45.504Z,101629.00
2018-10-17T03:08:48.543Z,101625.00
2018-10-17T03:10:52.010Z,101627.00
2018-10-17T03:12:55.139Z,101625.00
2018-10-17T03:14:58.174Z,101628.00
2018-10-17T03:17:02.123Z,101626.00
2018-10-17T03:19:06.560Z,101620.00
2018-10-17T03:21:09.980Z,101619.00
2018-10-17T03:23:13.152Z,101618.00
2018-10-17T03:25:16.175Z,101616.00
2018-10-17T03:27:19.151Z,101616.00
2018-10-17T03:29:22.174Z,101612.00
2018-10-17T03:31:25.311Z,101612.00
2018-10-17T03:33:28.267Z,101614.00
2018-10-17T03:35:31.296Z,101618.00
2018-10-17T03:37:35.904Z,101622.00
2018-10-17T03:39:38.897Z,101622.00
2018-10-17T03:41:41.908Z,101621.00
2018-10-17T03:43:44.891Z,101625.00
2018-10-17T03:45:47.865Z,101628.00
2018-10-17T03:47:50.905Z,101621.00
2018-10-17T03:49:54.014Z,101628.00
2018-10-17T03:51:56.920Z,101625.00
2018-10-17T03:53:59.884Z,101627.00
2018-10-17T03:56:04.338Z,101628.00
2018-10-17T03:58:07.302Z,101632.00
2018-10-17T04:00:10.353Z,101635.00
2018-10-17T04:02:13.332Z,101638.00
2018-10-17T04:04:16.340Z,101645.00
2018-10-17T04:06:19.646Z,101641.00
2018-10-17T04:08:22.624Z,101640.00
2018-10-17T04:10:25.645Z,101646.00
2018-10-17T04:12:28.664Z,101644.00
2018-10-17T04:14:31.665Z,101653.00
2018-10-17T04:16:35.997Z,101653.00
2018-10-17T04:18:39.015Z,101657.00
2018-10-17T04:20:42.020Z,101655.00
2018-10-17T04:22:49.657Z,101659.00
2018-10-17T04:24:52.818Z,101656.00
2018-10-17T04:26:55.882Z,101658.00
2018-10-17T04:28:59.032Z,101659.00
2018-10-17T04:31:02.137Z,101661.00
2018-10-17T04:33:06.466Z,101656.00
2018-10-17T04:35:09.683Z,101656.00
2018-10-17T04:37:12.813Z,101654.00
2018-10-17T04:39:15.848Z,101652.00
2018-10-17T04:41:19.084Z,101654.00
2018-10-17T04:43:22.044Z,101651.00
2018-10-17T04:45:25.085Z,101653.00
2018-10-17T04:47:28.177Z,101655.00
2018-10-17T04:49:31.237Z,101651.00
2018-10-17T04:51:35.629Z,101652.00
2018-10-17T04:53:38.928Z,101658.00
2018-10-17T04:55:41.939Z,101659.00
2018-10-17T04:57:44.981Z,101659.00
2018-10-17T04:59:48.274Z,101654.00
2018-10-17T05:01:51.318Z,101658.00
2018-10-17T05:03:54.365Z,101656.00
2018-10-17T05:05:57.407Z,101661.00
2018-10-17T05:08:00.433Z,101666.00
2018-10-17T05:10:04.892Z,101668.00
2018-10-17T05:12:08.173Z,101665.00
2018-10-17T05:14:11.244Z,101661.00
2018-10-17T05:16:14.286Z,101662.00
2018-10-17T05:18:17.345Z,101660.00
2018-10-17T05:20:20.371Z,101659.00
2018-10-17T05:22:23.421Z,101668.00
2018-10-17T05:24:26.421Z,101671.00
2018-10-17T05:26:29.681Z,101672.00
2018-10-17T05:28:34.081Z,101684.00
2018-10-17T05:30:37.115Z,101681.00
2018-10-17T05:32:40.152Z,101686.00
2018-10-17T05:34:43.277Z,101686.00
2018-10-17T05:36:46.333Z,101689.00
2018-10-17T05:38:49.412Z,101682.00
2018-10-17T05:40:52.539Z,101684.00
2018-10-17T05:42:55.571Z,101678.00
2018-10-17T05:44:58.923Z,101685.00
2018-10-17T05:47:02.005Z,101687.00
2018-10-17T05:49:07.031Z,101683.00
2018-10-17T05:51:10.286Z,101689.00
2018-10-17T05:53:13.365Z,101690.00
2018-10-17T05:55:16.573Z,101692.00
2018-10-17T05:57:19.523Z,101689.00
2018-10-17T05:59:22.581Z,101690.00
2018-10-17T06:01:25.670Z,101694.00
2018-10-17T06:03:28.654Z,101696.00
2018-10-17T06:05:31.696Z,101703.00
2018-10-17T06:07:36.131Z,101708.00
2018-10-17T06:09:39.217Z,101712.00
2018-10-17T06:11:42.369Z,101711.00
2018-10-17T06:13:45.425Z,101707.00
2018-10-17T06:15:48.466Z,101709.00
2018-10-17T06:17:51.573Z,101704.00
2018-10-17T06:19:54.619Z,101707.00
2018-10-17T06:21:57.701Z,101701.00
2018-10-17T06:24:00.797Z,101697.00
2018-10-17T06:26:05.024Z,101702.00
2018-10-17T06:28:08.411Z,101703.00
2018-10-17T06:30:11.502Z,101703.00
2018-10-17T06:32:14.525Z,101702.00
2018-10-17T06:34:17.651Z,101698.00
2018-10-17T06:36:20.628Z,101702.00
2018-10-17T06:38:23.672Z,101705.00
2018-10-17T06:40:27.009Z,101703.00
2018-10-17T06:42:30.075Z,101703.00
2018-10-17T06:44:34.492Z,101701.00
2018-10-17T06:46:37.801Z,101701.00
2018-10-17T06:48:40.857Z,101705.00
2018-10-17T06:50:43.953Z,101706.00
2018-10-17T06:52:47.073Z,101703.00
2018-10-17T06:54:50.183Z,101696.00
2018-10-17T06:56:53.221Z,101688.00
2018-10-17T06:58:56.510Z,101693.00
2018-10-17T07:00:59.597Z,101702.00
2018-10-17T07:03:03.849Z,101699.00
2018-10-17T07:05:07.899Z,101700.00
2018-10-17T07:07:11.229Z,101703.00
2018-10-17T07:09:14.178Z,101702.00
2018-10-17T07:11:17.619Z,101703.00
2018-10-17T07:13:20.932Z,101702.00
2018-10-17T07:15:23.941Z,101705.00
2018-10-17T07:17:26.936Z,101705.00
2018-10-17T07:19:30.001Z,101706.00
2018-10-17T07:21:34.359Z,101704.00
2018-10-17T07:23:37.400Z,101699.00
2018-10-17T07:25:40.505Z,101701.00
2018-10-17T07:27:43.558Z,101698.00
2018-10-17T07:29:46.771Z,101703.00
2018-10-17T07:31:49.746Z,101698.00
2018-10-17T07:33:52.778Z,101696.00
2018-10-17T07:35:55.899Z,101695.00
2018-10-17T07:37:58.920Z,101693.00
2018-10-17T07:40:02.234Z,101692.00
2018-10-17T07:42:07.164Z,101696.00
2018-10-17T07:44:10.203Z,101694.00
2018-10-17T07:46:13.319Z,101692.00
2018-10-17T07:48:16.591Z,101687.00
2018-10-17T07:50:19.641Z,101689.00
2018-10-17T07:52:22.693Z,101688.00
2018-10-17T07:54:25.760Z,101691.00
2018-10-17T07:56:28.820Z,101690.00
2018-10-17T07:58:32.125Z,101694.00
2018-10-17T08:00:36.414Z,101687.00
2018-10-17T08:02:39.551Z,101692.00
2018-10-17T08:04:42.690Z,101690.00
2018-10-17T08:06:45.789Z,101695.00
2018-10-17T08:08:48.784Z,101693.00
2018-10-17T08:10:51.894Z,101695.00
2018-10-17T08:12:54.963Z,101698.00
2018-10-17T08:14:58.030Z,101698.00
2018-10-17T08:17:01.110Z,101697.00
2018-10-17T08:19:06.177Z,101696.00
2018-10-17T08:21:09.219Z,101696.00
2018-10-17T08:23:12.373Z,101698.00
2018-10-17T08:25:15.420Z,101699.00
2018-10-17T08:27:18.475Z,101697.00
2018-10-17T08:29:22.011Z,101698.00
2018-10-17T08:31:25.484Z,101695.00
2018-10-17T08:33:28.501Z,101696.00
2018-10-17T08:35:31.689Z,101699.00
2018-10-17T08:37:36.771Z,101709.00
2018-10-17T08:39:39.511Z,101706.00
2018-10-17T08:41:42.581Z,101705.00
2018-10-17T08:43:45.603Z,101703.00
2018-10-17T08:45:48.745Z,101697.00
2018-10-17T08:47:51.833Z,101694.00
2018-10-17T08:49:54.900Z,101700.00
2018-10-17T08:51:57.934Z,101699.00
2018-10-17T08:54:00.984Z,101694.00
2018-10-17T08:56:04.693Z,101692.00
2018-10-17T08:58:07.695Z,101692.00
2018-10-17T09:00:10.789Z,101696.00
2018-10-17T09:02:13.947Z,101698.00
2018-10-17T09:04:17.001Z,101692.00
2018-10-17T09:06:20.174Z,101693.00
2018-10-17T09:08:23.271Z,101695.00
2018-10-17T09:10:26.223Z,101693.00
2018-10-17T09:12:29.305Z,101692.00
2018-10-17T09:14:32.390Z,101689.00
2018-10-17T09:16:35.494Z,101686.00
2018-10-17T09:18:38.547Z,101688.00
2018-10-17T09:20:41.788Z,101684.00
2018-10-17T09:22:44.685Z,101683.00
2018-10-17T09:24:47.753Z,101684.00
2018-10-17T09:26:50.791Z,101686.00
2018-10-17T09:28:54.237Z,101681.00
2018-10-17T09:30:57.284Z,101677.00
2018-10-17T09:33:00.384Z,101677.00
2018-10-17T09:35:05.571Z,101674.00
2018-10-17T09:37:08.569Z,101676.00
2018-10-17T09:39:11.950Z,101675.00
2018-10-17T09:41:15.009Z,101680.00
2018-10-17T09:43:18.097Z,101678.00
2018-10-17T09:45:21.016Z,101675.00
2018-10-17T09:47:24.063Z,101671.00
2018-10-17T09:49:27.043Z,101678.00
2018-10-17T09:51:30.049Z,101680.00
2018-10-17T09:53:34.392Z,101676.00
2018-10-17T09:55:37.428Z,101678.00
2018-10-17T09:57:40.439Z,101676.00
2018-10-17T09:59:43.476Z,101672.00
2018-10-17T10:01:50.061Z,101674.00
2018-10-17T10:03:53.245Z,101668.00
2018-10-17T10:05:56.412Z,101664.00
2018-10-17T10:07:59.365Z,101666.00
2018-10-17T10:10:02.514Z,101663.00
2018-10-17T10:12:06.960Z,101662.00
2018-10-17T10:14:09.923Z,101652.00
2018-10-17T10:16:13.067Z,101648.00
2018-10-17T10:18:16.013Z,101649.00
2018-10-17T10:20:19.036Z,101646.00
2018-10-17T10:22:22.337Z,101644.00
2018-10-17T10:24:25.348Z,101646.00
2018-10-17T10:26:28.381Z,101639.00
2018-10-17T10:28:31.524Z,101640.00
2018-10-17T10:30:35.896Z,101638.00
2018-10-17T10:32:38.872Z,101637.00
2018-10-17T10:34:41.901Z,101628.00
2018-10-17T10:36:44.928Z,101625.00
2018-10-17T10:38:47.945Z,101618.00
2018-10-17T10:40:50.985Z,101615.00
2018-10-17T10:42:53.981Z,101614.00
2018-10-17T10:44:57.079Z,101610.00
2018-10-17T10:47:00.043Z,101611.00
2018-10-17T10:49:03.668Z,101608.00
2018-10-17T10:51:07.239Z,101605.00
2018-10-17T10:53:10.805Z,101601.00
2018-10-17T10:55:13.812Z,101600.00
2018-10-17T10:57:16.870Z,101596.00
2018-10-17T10:59:19.990Z,101588.00
2018-10-17T11:01:22.968Z,101588.00
2018-10-17T11:03:25.959Z,101588.00
2018-10-17T11:05:29.124Z,101591.00
2018-10-17T11:07:32.040Z,101586.00
2018-10-17T11:09:36.341Z,101585.00
2018-10-17T11:11:39.571Z,101585.00
2018-10-17T11:13:42.604Z,101582.00
2018-10-17T11:15:45.951Z,101575.00
2018-10-17T11:17:48.949Z,101577.00
2018-10-17T11:19:51.986Z,101584.00
2018-10-17T11:21:55.075Z,101576.00
2018-10-17T11:23:58.017Z,101580.00
2018-10-17T11:26:01.074Z,101575.00
2018-10-17T11:28:05.840Z,101572.00
2018-10-17T11:30:10.276Z,101571.00
2018-10-17T11:32:13.275Z,101576.00
2018-10-17T11:34:16.336Z,101569.00
2018-10-17T11:36:19.321Z,101568.00
2018-10-17T11:38:22.310Z,101565.00
2018-10-17T11:40:25.361Z,101560.00
2018-10-17T11:42:28.388Z,101557.00
2018-10-17T11:44:31.373Z,101553.00
2018-10-17T11:46:35.955Z,101550.00
2018-10-17T11:48:38.924Z,101552.00
2018-10-17T11:50:41.941Z,101558.00
2018-10-17T11:52:44.963Z,101552.00
2018-10-17T11:54:47.981Z,101554.00
2018-10-17T11:56:51.103Z,101550.00
2018-10-17T11:58:54.471Z,101548.00
2018-10-17T12:00:57.442Z,101543.00
2018-10-17T12:03:00.502Z,101543.00
2018-10-17T12:05:05.135Z,101543.00
2018-10-17T12:07:07.784Z,101532.00
2018-10-17T12:09:10.824Z,101534.00
2018-10-17T12:11:13.841Z,101532.00
2018-10-17T12:13:16.814Z,101530.00
2018-10-17T12:15:19.911Z,101526.00
2018-10-17T12:17:22.869Z,101527.00
2018-10-17T12:19:25.924Z,101525.00
2018-10-17T12:21:28.937Z,101525.00
2018-10-17T12:23:31.956Z,101521.00
2018-10-17T12:25:36.166Z,101523.00
2018-10-17T12:27:39.283Z,101528.00
2018-10-17T12:29:42.308Z,101526.00
2018-10-17T12:31:45.327Z,101528.00
2018-10-17T12:33:48.368Z,101519.00
2018-10-17T12:35:51.487Z,101519.00
2018-10-17T12:37:54.472Z,101518.00
2018-10-17T12:39:57.592Z,101515.00
2018-10-17T12:42:00.479Z,101515.00
2018-10-17T12:44:05.567Z,101512.00
2018-10-17T12:46:08.623Z,101517.00
2018-10-17T12:48:11.649Z,101519.00
2018-10-17T12:50:14.743Z,101513.00
2018-10-17T12:52:17.811Z,101512.00
2018-10-17T12:54:20.770Z,101509.00
2018-10-17T12:56:23.789Z,101507.00
2018-10-17T12:58:26.908Z,101512.00
2018-10-17T13:00:30.298Z,101510.00
2018-10-17T13:02:34.600Z,101502.00
2018-10-17T13:04:37.901Z,101505.00
2018-10-17T13:06:41.170Z,101503.00
2018-10-17T13:08:44.311Z,101503.00
2018-10-17T13:10:47.269Z,101499.00
2018-10-17T13:12:50.553Z,101497.00
2018-10-17T13:14:53.593Z,101497.00
2018-10-17T13:16:56.646Z,101500.00
2018-10-17T13:18:59.683Z,101496.00
2018-10-17T13:21:04.091Z,101498.00
2018-10-17T13:23:07.216Z,101492.00
2018-10-17T13:25:10.285Z,101500.00
2018-10-17T13:27:13.214Z,101496.00
2018-10-17T13:29:16.378Z,101494.00
2018-10-17T13:31:19.365Z,101495.00
2018-10-17T13:33:22.385Z,101493.00
2018-10-17T13:35:25.416Z,101493.00
2018-10-17T13:37:28.427Z,101496.00
2018-10-17T13:39:31.705Z,101490.00
2018-10-17T13:41:36.226Z,101487.00
2018-10-17T13:43:39.261Z,101484.00
2018-10-17T13:45:42.357Z,101484.00
2018-10-17T13:47:45.385Z,101484.00
2018-10-17T13:49:48.693Z,101484.00
2018-10-17T13:51:51.600Z,101485.00
2018-10-17T13:53:58.681Z,101483.00
2018-10-17T13:56:01.727Z,101487.00
2018-10-17T13:58:07.073Z,101483.00
2018-10-17T14:00:11.569Z,101482.00
2018-10-17T14:02:14.585Z,101479.00
2018-10-17T14:04:18.137Z,101483.00
2018-10-17T14:06:21.338Z,101482.00
2018-10-17T14:08:24.385Z,101481.00
2018-10-17T14:10:27.439Z,101477.00
2018-10-17T14:12:30.511Z,101478.00
2018-10-17T14:14:34.904Z,101473.00
2018-10-17T14:16:37.923Z,101473.00
2018-10-17T14:18:40.945Z,101478.00
2018-10-17T14:20:43.929Z,101472.00
2018-10-17T14:22:46.973Z,101476.00
2018-10-17T14:24:50.021Z,101474.00
2018-10-17T14:26:53.141Z,101475.00
2018-10-17T14:28:56.285Z,101480.00
2018-10-17T14:30:59.381Z,101475.00
2018-10-17T14:33:02.436Z,101475.00
2018-10-17T14:35:10.074Z,101475.00
2018-10-17T14:37:13.237Z,101479.00
2018-10-17T14:39:16.270Z,101479.00
2018-10-17T14:41:19.379Z,101481.00
2018-10-17T14:43:22.361Z,101484.00
2018-10-17T14:45:25.423Z,101486.00
2018-10-17T14:47:28.467Z,101490.00
2018-10-17T14:49:31.486Z,101487.00
2018-10-17T14:51:35.573Z,101489.00
2018-10-17T14:53:38.777Z,101491.00
2018-10-17T14:55:41.833Z,101489.00
2018-10-17T14:57:44.804Z,101492.00
2018-10-17T14:59:47.935Z,101492.00
2018-10-17T15:01:51.402Z,101495.00
2018-10-17T15:03:54.417Z,101494.00
2018-10-17T15:05:57.980Z,101498.00
2018-10-17T15:08:01.019Z,101496.00
2018-10-17T15:10:05.580Z,101490.00
2018-10-17T15:12:10.289Z,101496.00
2018-10-17T15:14:13.399Z,101488.00
2018-10-17T15:16:16.386Z,101492.00
2018-10-17T15:18:19.457Z,101492.00
2018-10-17T15:20:22.512Z,101497.00
2018-10-17T15:22:25.609Z,101499.00
2018-10-17T15:24:28.682Z,101499.00
2018-10-17T15:26:31.736Z,101497.00
2018-10-17T15:28:36.198Z,101501.00
2018-10-17T15:30:39.231Z,101499.00
2018-10-17T15:32:42.291Z,101496.00
2018-10-17T15:34:45.420Z,101510.00
2018-10-17T15:36:48.519Z,101511.00
2018-10-17T15:38:51.665Z,101512.00
2018-10-17T15:40:54.691Z,101515.00
2018-10-17T15:42:57.915Z,101520.00
2018-10-17T15:45:01.533Z,101516.00
2018-10-17T15:47:05.847Z,101517.00
2018-10-17T15:49:08.906Z,101518.00
2018-10-17T15:51:12.004Z,101514.00
2018-10-17T15:53:15.175Z,101518.00
2018-10-17T15:55:18.066Z,101518.00
2018-10-17T15:57:21.056Z,101518.00
2018-10-17T15:59:24.077Z,101523.00
2018-10-17T16:01:27.322Z,101526.00
2018-10-17T16:03:30.401Z,101528.00
2018-10-17T16:05:34.878Z,101534.00
2018-10-17T16:07:37.906Z,101530.00
2018-10-17T16:09:40.926Z,101532.00
2018-10-17T16:11:44.461Z,101530.00
2018-10-17T16:13:47.352Z,101535.00
2018-10-17T16:15:50.470Z,101533.00
2018-10-17T16:17:53.671Z,101535.00
2018-10-17T16:19:56.699Z,101536.00
2018-10-17T16:21:59.640Z,101533.00
2018-10-17T16:24:04.994Z,101537.00
2018-10-17T16:26:07.998Z,101538.00
2018-10-17T16:28:10.955Z,101539.00
2018-10-17T16:30:14.015Z,101546.00
2018-10-17T16:32:17.082Z,101546.00
2018-10-17T16:34:20.076Z,101547.00
2018-10-17T16:36:23.140Z,101554.00
2018-10-17T16:38:26.161Z,101555.00
2018-10-17T16:40:29.125Z,101554.00
2018-10-17T16:42:32.474Z,101562.00
2018-10-17T16:44:36.713Z,101560.00
2018-10-17T16:46:39.764Z,101565.00
2018-10-17T16:48:43.161Z,101570.00
2018-10-17T16:50:46.223Z,101567.00
2018-10-17T16:52:49.159Z,101565.00
2018-10-17T16:54:52.248Z,101570.00
2018-10-17T16:56:55.264Z,101576.00
2018-10-17T16:58:58.277Z,101579.00
2018-10-17T17:01:01.306Z,101583.00
2018-10-17T17:03:06.073Z,101585.00
2018-10-17T17:05:11.489Z,101584.00
2018-10-17T17:07:14.509Z,101589.00
2018-10-17T17:09:17.679Z,101588.00
2018-10-17T17:11:20.571Z,101591.00
2018-10-17T17:13:23.589Z,101589.00
2018-10-17T17:15:26.560Z,101589.00
2018-10-17T17:17:29.545Z,101589.00
2018-10-17T17:19:33.760Z,101593.00
2018-10-17T17:21:36.811Z,101591.00
2018-10-17T17:23:39.789Z,101593.00
2018-10-17T17:25:42.814Z,101596.00
2018-10-17T17:27:45.783Z,101594.00
2018-10-17T17:29:49.132Z,101598.00
2018-10-17T17:31:52.158Z,101601.00
2018-10-17T17:33:55.145Z,101595.00
2018-10-17T17:35:58.168Z,101600.00
2018-10-17T17:38:01.169Z,101599.00
2018-10-17T17:40:06.023Z,101598.00
2018-10-17T17:42:09.065Z,101595.00
2018-10-17T17:44:12.037Z,101602.00
2018-10-17T17:46:15.143Z,101600.00
2018-10-17T17:48:18.111Z,101598.00
2018-10-17T17:50:21.084Z,101599.00
2018-10-17T17:52:24.121Z,101597.00
2018-10-17T17:54:27.075Z,101599.00
2018-10-17T17:56:30.057Z,101593.00
2018-10-17T17:58:34.454Z,101591.00
2018-10-17T18:00:37.368Z,101589.00
2018-10-17T18:02:40.737Z,101592.00
2018-10-17T18:04:43.752Z,101594.00
2018-10-17T18:06:46.771Z,101593.00
2018-10-17T18:08:49.803Z,101593.00
2018-10-17T18:10:52.796Z,101599.00
2018-10-17T18:12:55.801Z,101600.00
2018-10-17T18:14:58.823Z,101604.00
2018-10-17T18:17:02.109Z,101604.00
2018-10-17T18:19:06.985Z,101601.00
2018-10-17T18:21:10.001Z,101599.00
2018-10-17T18:23:13.065Z,101602.00
2018-10-17T18:25:16.066Z,101607.00
2018-10-17T18:27:19.090Z,101610.00
2018-10-17T18:29:22.077Z,101611.00
2018-10-17T18:31:25.344Z,101614.00
2018-10-17T18:33:28.323Z,101607.00
2018-10-17T18:35:31.337Z,101608.00
2018-10-17T18:37:36.253Z,101619.00
2018-10-17T18:39:39.284Z,101614.00
2018-10-17T18:41:42.301Z,101615.00
2018-10-17T18:43:45.270Z,101613.00
2018-10-17T18:45:48.704Z,101616.00
2018-10-17T18:47:51.769Z,101615.00
2018-10-17T18:49:54.722Z,101617.00
2018-10-17T18:51:58.014Z,101617.00
2018-10-17T18:54:00.988Z,101619.00
2018-10-17T18:56:05.654Z,101623.00
2018-10-17T18:58:08.901Z,101627.00
2018-10-17T19:00:11.877Z,101625.00
2018-10-17T19:02:14.856Z,101631.00
2018-10-17T19:04:18.074Z,101627.00
2018-10-17T19:06:21.083Z,101629.00
2018-10-17T19:08:24.073Z,101635.00
2018-10-17T19:10:27.087Z,101636.00
2018-10-17T19:12:30.092Z,101640.00
2018-10-17T19:14:34.581Z,101636.00
2018-10-17T19:16:37.615Z,101636.00
2018-10-17T19:18:40.604Z,101621.00
2018-10-17T19:20:43.611Z,101636.00
2018-10-17T19:22:46.616Z,101631.00
2018-10-17T19:24:49.643Z,101639.00
2018-10-17T19:26:52.694Z,101637.00
2018-10-17T19:28:55.634Z,101640.00
2018-10-17T19:30:58.606Z,101637.00
2018-10-17T19:33:01.645Z,101637.00
2018-10-17T19:35:06.695Z,101643.00
2018-10-17T19:37:09.657Z,101639.00
2018-10-17T19:39:13.250Z,101641.00
2018-10-17T19:41:16.318Z,101649.00
2018-10-17T19:43:19.315Z,101648.00
2018-10-17T19:45:22.343Z,101649.00
2018-10-17T19:47:25.661Z,101647.00
2018-10-17T19:49:28.675Z,101650.00
2018-10-17T19:51:31.693Z,101660.00
2018-10-17T19:53:36.000Z,101662.00
2018-10-17T19:55:39.003Z,101655.00
2018-10-17T19:57:42.016Z,101658.00
2018-10-17T19:59:45.275Z,101659.00
2018-10-17T20:01:48.250Z,101664.00
2018-10-17T20:03:51.393Z,101662.00
2018-10-17T20:05:54.420Z,101659.00
2018-10-17T20:07:57.414Z,101661.00
2018-10-17T20:10:00.380Z,101658.00
2018-10-17T20:12:05.091Z,101657.00
2018-10-17T20:14:08.809Z,101658.00
2018-10-17T20:16:11.815Z,101656.00
2018-10-17T20:18:15.154Z,101659.00
2018-10-17T20:20:18.169Z,101659.00
2018-10-17T20:22:21.277Z,101664.00
2018-10-17T20:24:24.296Z,101663.00
2018-10-17T20:26:27.284Z,101662.00
2018-10-17T20:28:30.360Z,101663.00
2018-10-17T20:30:35.115Z,101665.00
2018-10-17T20:32:38.157Z,101663.00
2018-10-17T20:34:41.105Z,101656.00
2018-10-17T20:36:44.138Z,101657.00
2018-10-17T20:38:47.119Z,101659.00
2018-10-17T20:40:50.127Z,101659.00
2018-10-17T20:42:53.186Z,101659.00
2018-10-17T20:44:56.192Z,101653.00
2018-10-17T20:46:59.197Z,101651.00
2018-10-17T20:49:02.309Z,101658.00
2018-10-17T20:51:06.412Z,101656.00
2018-10-17T20:53:11.488Z,101651.00
2018-10-17T20:55:14.581Z,101651.00
2018-10-17T21:01:50.141Z,101657.00
2018-10-17T21:03:53.358Z,101659.00
2018-10-17T21:05:56.426Z,101660.00
2018-10-17T21:07:59.455Z,101658.00
2018-10-17T21:10:02.433Z,101655.00
2018-10-17T21:12:07.368Z,101659.00
2018-10-17T21:14:10.943Z,101656.00
2018-10-17T21:16:13.921Z,101664.00
2018-10-17T21:18:16.955Z,101658.00
2018-10-17T21:20:19.904Z,101659.00
2018-10-17T21:22:22.873Z,101663.00
2018-10-17T21:24:26.236Z,101656.00
2018-10-17T21:26:29.273Z,101663.00
2018-10-17T21:28:32.257Z,101658.00
2018-10-17T21:30:36.455Z,101660.00
2018-10-17T21:32:39.445Z,101661.00
2018-10-17T21:34:42.421Z,101658.00
2018-10-17T21:36:45.425Z,101662.00
2018-10-17T21:38:48.409Z,101659.00
2018-10-17T21:40:51.783Z,101659.00
2018-10-17T21:42:55.009Z,101660.00
2018-10-17T21:44:58.095Z,101652.00
2018-10-17T21:47:01.121Z,101651.00
2018-10-17T21:49:05.077Z,101649.00
2018-10-17T21:51:08.030Z,101647.00
2018-10-17T21:53:11.008Z,101650.00
2018-10-17T21:55:14.006Z,101649.00
2018-10-17T21:57:16.985Z,101653.00
2018-10-17T21:59:19.950Z,101652.00
2018-10-17T22:01:23.021Z,101650.00
2018-10-17T22:03:26.380Z,101650.00
2018-10-17T22:05:29.347Z,101656.00
2018-10-17T22:07:32.433Z,101654.00
2018-10-17T22:09:36.830Z,101658.00
2018-10-17T22:11:39.828Z,101652.00
2018-10-17T22:13:42.792Z,101655.00
2018-10-17T22:15:45.777Z,101655.00
2018-10-17T22:17:48.753Z,101654.00
2018-10-17T22:19:51.808Z,101658.00
2018-10-17T22:21:54.778Z,101657.00
2018-10-17T22:23:57.796Z,101660.00
2018-10-17T22:26:00.938Z,101658.00
2018-10-17T22:28:05.897Z,101653.00
2018-10-17T22:30:09.032Z,101655.00
2018-10-17T22:32:12.073Z,101654.00
2018-10-17T22:34:15.032Z,101661.00
2018-10-17T22:40:50.637Z,101660.00
2018-10-17T22:42:53.663Z,101663.00
2018-10-17T22:44:56.636Z,101659.00
2018-10-17T22:46:59.653Z,101662.00
2018-10-17T22:49:04.488Z,101658.00
2018-10-17T22:51:07.475Z,101659.00
2018-10-17T22:53:10.472Z,101656.00
2018-10-17T22:55:13.457Z,101660.00
2018-10-17T22:57:16.477Z,101663.00
2018-10-17T22:59:19.434Z,101659.00
2018-10-17T23:01:22.543Z,101661.00
2018-10-17T23:03:25.560Z,101664.00
2018-10-17T23:05:28.541Z,101661.00
2018-10-17T23:07:31.555Z,101656.00
2018-10-17T23:09:35.064Z,101658.00
2018-10-17T23:11:38.240Z,101658.00
2018-10-17T23:13:41.199Z,101653.00
2018-10-17T23:15:44.173Z,101649.00
2018-10-17T23:17:47.181Z,101656.00
2018-10-17T23:19:50.209Z,101653.00
2018-10-17T23:21:53.257Z,101651.00
2018-10-17T23:23:56.278Z,101653.00
2018-10-17T23:25:59.291Z,101653.00
2018-10-17T23:28:02.278Z,101657.00
2018-10-17T23:30:07.876Z,101654.00
2018-10-17T23:32:10.879Z,101653.00
2018-10-17T23:34:13.857Z,101653.00
2018-10-17T23:36:16.812Z,101655.00